Time;durP1;ratioP1;P1;durP2;ratioP2;P2;SDS_P1;SDS_P2;PMS_P1;PMS_P2;Temp;Humidity;BMP_temperature;BMP_pressure;BME280_temperature;BME280_humidity;BME280_pressure;Samples;Min_cycle;Max_cycle;Signal;HPM_P1;HPM_P2
2024/03/01 00:04:45;;;;;;;20.13;17.47;;;7.80;39.10;;;;;;10482427;28;20223;-77
2024/03/01 00:09:50;;;;;;;19.23;16.03;;;7.60;39.40;;;;;;10481882;28;20594;-77
2024/03/01 00:14:53;;;;;;;18.87;16.23;;;7.50;39.40;;;;;;10488756;28;20230;-78
2024/03/01 00:19:57;;;;;;;18.53;16.47;;;7.50;39.40;;;;;;10486254;28;20273;-77
2024/03/01 00:25:01;;;;;;;21.17;16.43;;;7.30;39.60;;;;;;10483254;28;20675;-77
2024/03/01 00:30:06;;;;;;;19.30;17.20;;;7.20;40.20;;;;;;10481425;28;20324;-77
2024/03/01 00:35:10;;;;;;;26.33;18.90;;;7.20;40.10;;;;;;10478931;28;20221;-77
2024/03/01 00:40:14;;;;;;;27.13;19.87;;;7.30;40.30;;;;;;10489039;28;20228;-77
2024/03/01 00:45:18;;;;;;;63.63;21.53;;;7.30;40.40;;;;;;10491845;28;20228;-77
2024/03/01 00:50:22;;;;;;;28.73;21.10;;;7.30;40.10;;;;;;10492403;28;20224;-75
2024/03/01 00:55:26;;;;;;;70.17;22.37;;;7.30;40.10;;;;;;10481638;28;20233;-75
2024/03/01 01:00:30;;;;;;;66.07;21.10;;;7.30;40.40;;;;;;10491630;28;20220;-78
2024/03/01 01:05:33;;;;;;;54.20;19.67;;;7.20;40.20;;;;;;10479738;28;20607;-77
2024/03/01 01:10:37;;;;;;;29.33;21.37;;;7.10;40.30;;;;;;10486286;28;20249;-78
2024/03/01 01:15:41;;;;;;;36.57;19.83;;;6.90;40.80;;;;;;10481244;28;20224;-76
2024/03/01 01:20:45;;;;;;;45.07;19.87;;;7.00;40.90;;;;;;10475940;28;20230;-77
2024/03/01 01:25:50;;;;;;;47.57;19.57;;;6.90;40.60;;;;;;10482698;28;20303;-77
2024/03/01 01:30:53;;;;;;;68.50;18.63;;;6.90;41.00;;;;;;10488551;28;20311;-77
2024/03/01 01:35:56;;;;;;;23.30;15.83;;;7.00;40.90;;;;;;10481137;28;20224;-75
2024/03/01 01:41:01;;;;;;;25.17;16.07;;;6.90;40.70;;;;;;10483996;28;20239;-77
2024/03/01 01:46:05;;;;;;;53.10;16.27;;;6.90;40.90;;;;;;10476280;28;20349;-77
2024/03/01 01:51:10;;;;;;;17.40;15.70;;;6.90;40.70;;;;;;10480687;28;20311;-77
2024/03/01 01:56:15;;;;;;;19.80;17.03;;;6.80;40.60;;;;;;10480749;28;20335;-77
2024/03/01 02:01:19;;;;;;;41.60;14.87;;;6.70;40.90;;;;;;10485797;28;20303;-78
2024/03/01 02:06:23;;;;;;;52.20;15.73;;;6.60;40.80;;;;;;10483404;28;20239;-77
2024/03/01 02:11:27;;;;;;;57.73;15.13;;;6.50;40.60;;;;;;10487660;28;20243;-77
2024/03/01 02:16:31;;;;;;;15.50;14.20;;;6.40;41.10;;;;;;10483610;28;20240;-77
2024/03/01 02:21:39;;;;;;;17.10;15.50;;;6.40;41.20;;;;;;10479250;28;20229;-77
2024/03/01 02:26:44;;;;;;;25.67;14.93;;;6.50;41.60;;;;;;10482446;28;20315;-77
2024/03/01 02:31:47;;;;;;;21.47;14.53;;;6.50;41.60;;;;;;10482787;28;20230;-77
2024/03/01 02:36:50;;;;;;;17.00;14.93;;;6.50;41.10;;;;;;10483514;28;20263;-77
2024/03/01 02:41:55;;;;;;;55.47;15.50;;;6.60;41.10;;;;;;10482834;28;20233;-78
2024/03/01 02:46:58;;;;;;;65.50;15.33;;;6.60;41.10;;;;;;10483259;28;20293;-77
2024/03/01 02:52:01;;;;;;;56.43;15.80;;;6.60;40.70;;;;;;10488913;28;20501;-76
2024/03/01 02:57:06;;;;;;;31.53;14.57;;;6.50;40.70;;;;;;10489245;28;20213;-77
2024/03/01 03:02:09;;;;;;;42.30;16.10;;;6.30;41.00;;;;;;10488221;28;20302;-77
2024/03/01 03:07:13;;;;;;;66.20;16.13;;;6.00;40.90;;;;;;10487011;28;20300;-77
2024/03/01 03:12:18;;;;;;;22.57;15.10;;;5.90;41.30;;;;;;10487460;28;20236;-77
2024/03/01 03:17:21;;;;;;;64.47;16.10;;;5.80;41.80;;;;;;10491989;28;20221;-77
2024/03/01 03:22:24;;;;;;;44.97;15.87;;;5.70;41.80;;;;;;10491745;28;20320;-77
2024/03/01 03:27:29;;;;;;;41.40;16.03;;;5.70;42.00;;;;;;10497079;28;20227;-78
2024/03/01 03:32:32;;;;;;;67.20;18.23;;;5.70;42.50;;;;;;10499547;28;20271;-77
2024/03/01 03:37:35;;;;;;;16.87;14.57;;;5.60;42.20;;;;;;10496278;28;20278;-77
2024/03/01 03:42:40;;;;;;;95.90;15.73;;;5.60;42.60;;;;;;10499231;28;20272;-77
2024/03/01 03:47:43;;;;;;;79.83;15.57;;;5.70;43.30;;;;;;10499303;28;20232;-77
2024/03/01 03:52:46;;;;;;;67.43;14.60;;;5.80;42.90;;;;;;10495019;28;20239;-77
2024/03/01 03:57:50;;;;;;;78.37;15.93;;;5.80;42.60;;;;;;10499951;28;20255;-77
2024/03/01 04:02:54;;;;;;;65.97;17.47;;;5.80;42.90;;;;;;10497364;28;20295;-77
2024/03/01 04:07:57;;;;;;;73.20;15.97;;;5.80;42.50;;;;;;10492337;28;20288;-77
2024/03/01 04:13:01;;;;;;;75.63;15.13;;;5.80;42.50;;;;;;10499252;28;20252;-77
2024/03/01 04:18:05;;;;;;;18.47;15.03;;;5.70;43.00;;;;;;10500216;28;20223;-77
2024/03/01 04:23:09;;;;;;;12.87;11.57;;;5.70;43.10;;;;;;10502222;28;20817;-77
2024/03/01 04:28:15;;;;;;;51.20;14.90;;;5.70;43.10;;;;;;10495900;28;20292;-76
2024/03/01 04:33:18;;;;;;;15.90;14.30;;;5.80;43.40;;;;;;10495127;28;20224;-77
2024/03/01 04:38:21;;;;;;;16.67;14.97;;;5.80;42.90;;;;;;10498036;28;20251;-77
2024/03/01 04:43:26;;;;;;;14.93;13.53;;;5.80;43.10;;;;;;10512338;28;20303;-77
2024/03/01 04:48:30;;;;;;;15.73;14.23;;;5.90;43.50;;;;;;10499370;28;20289;-77
2024/03/01 04:53:33;;;;;;;15.70;13.33;;;6.00;43.40;;;;;;10501107;28;20233;-77
2024/03/01 04:58:38;;;;;;;14.20;12.90;;;6.00;43.10;;;;;;10485733;28;20238;-77
2024/03/01 05:03:43;;;;;;;14.67;13.27;;;6.10;43.40;;;;;;10487113;28;20780;-77
2024/03/01 05:08:47;;;;;;;26.80;14.77;;;6.10;43.20;;;;;;10490067;28;20241;-77
2024/03/01 05:13:52;;;;;;;15.50;14.10;;;6.10;43.00;;;;;;10489901;28;20259;-76
2024/03/01 05:18:55;;;;;;;15.33;13.97;;;6.10;43.30;;;;;;10482727;28;20229;-77
2024/03/01 05:23:58;;;;;;;14.63;13.33;;;6.20;43.30;;;;;;10488481;28;20260;-76
2024/03/01 05:29:03;;;;;;;14.47;13.17;;;6.20;43.20;;;;;;10488885;28;20232;-77
2024/03/01 05:34:06;;;;;;;15.07;13.60;;;6.20;43.50;;;;;;10486980;28;20226;-76
2024/03/01 05:39:17;;;;;;;14.77;13.37;;;6.30;43.30;;;;;;10491165;28;20228;-77
2024/03/01 05:44:22;;;;;;;13.53;12.33;;;6.30;43.40;;;;;;10482408;28;20231;-77
2024/03/01 05:49:25;;;;;;;15.30;13.80;;;6.40;43.70;;;;;;10490919;28;20243;-76
2024/03/01 05:54:30;;;;;;;14.77;13.47;;;6.50;43.50;;;;;;10483889;28;20228;-76
2024/03/01 05:59:44;;;;;;;15.40;14.00;;;6.50;43.90;;;;;;10492975;28;20228;-76
2024/03/01 06:04:47;;;;;;;16.73;15.13;;;6.60;44.50;;;;;;10492199;28;20232;-76
2024/03/01 06:09:52;;;;;;;16.67;14.97;;;6.60;43.70;;;;;;10492306;28;20307;-78
2024/03/01 06:14:57;;;;;;;19.67;17.77;;;6.70;43.70;;;;;;10493204;28;20233;-77
2024/03/01 06:20:00;;;;;;;21.50;19.20;;;6.70;44.10;;;;;;10469883;28;20796;-78
2024/03/01 06:25:05;;;;;;;19.87;17.77;;;6.80;43.90;;;;;;10493525;28;20307;-78
2024/03/01 06:30:13;;;;;;;23.77;20.50;;;6.80;43.90;;;;;;10493427;28;20232;-78
2024/03/01 06:35:16;;;;;;;20.13;18.17;;;6.90;44.20;;;;;;10479339;28;20310;-77
2024/03/01 06:40:20;;;;;;;18.83;16.93;;;6.90;44.00;;;;;;10476466;28;20224;-78
2024/03/01 06:45:25;;;;;;;20.10;18.10;;;6.70;44.00;;;;;;10486596;28;20231;-78
2024/03/01 06:50:28;;;;;;;19.60;17.60;;;6.70;44.10;;;;;;10487738;28;20234;-77
2024/03/01 06:55:31;;;;;;;20.33;18.10;;;6.70;44.10;;;;;;10497999;28;20339;-78
2024/03/01 07:00:36;;;;;;;19.83;17.83;;;6.80;44.20;;;;;;10482962;28;20951;-79
2024/03/01 07:05:39;;;;;;;19.97;17.83;;;6.80;44.80;;;;;;10492293;28;20225;-79
2024/03/01 07:10:42;;;;;;;19.87;17.63;;;6.90;44.40;;;;;;10485845;28;20389;-79
2024/03/01 07:15:47;;;;;;;19.20;17.20;;;7.10;44.40;;;;;;10486876;28;20330;-79
2024/03/01 07:20:52;;;;;;;19.43;17.50;;;7.10;44.70;;;;;;10494643;28;20224;-79
2024/03/01 07:25:55;;;;;;;20.17;18.17;;;7.20;44.50;;;;;;10489566;28;20228;-79
2024/03/01 07:31:00;;;;;;;18.63;16.77;;;7.30;44.60;;;;;;10485852;28;20235;-79
2024/03/01 07:36:04;;;;;;;20.03;17.90;;;7.40;44.70;;;;;;10490910;28;20278;-77
2024/03/01 07:41:07;;;;;;;20.57;18.47;;;7.40;44.40;;;;;;10485482;28;20905;-79
2024/03/01 07:46:12;;;;;;;22.00;19.30;;;7.50;44.50;;;;;;10495574;28;20661;-79
2024/03/01 07:51:15;;;;;;;18.80;16.90;;;7.60;44.80;;;;;;10487814;28;20777;-79
2024/03/01 07:56:24;;;;;;;19.40;17.50;;;7.60;44.50;;;;;;10489703;28;20224;-79
2024/03/01 08:01:28;;;;;;;19.73;17.67;;;7.70;44.90;;;;;;10485094;28;20361;-79
2024/03/01 08:06:32;;;;;;;14.07;12.77;;;7.80;45.00;;;;;;10491232;28;20251;-78
2024/03/01 08:11:40;;;;;;;19.47;17.47;;;7.90;46.20;;;;;;10497850;28;20761;-78
2024/03/01 08:16:45;;;;;;;27.07;21.80;;;8.10;47.30;;;;;;10492529;28;20655;-79
2024/03/01 08:21:48;;;;;;;35.73;28.57;;;8.20;45.80;;;;;;10498417;28;20335;-75
2024/03/01 08:26:51;;;;;;;38.83;29.97;;;8.30;45.30;;;;;;10491584;28;20232;-77
2024/03/01 08:31:57;;;;;;;39.97;30.97;;;8.30;45.90;;;;;;10486105;28;20806;-79
2024/03/01 08:37:00;;;;;;;40.13;30.67;;;8.30;45.40;;;;;;10489018;28;20363;-79
2024/03/01 08:42:05;;;;;;;42.67;32.13;;;8.30;45.20;;;;;;10482217;28;20348;-79
2024/03/01 08:47:17;;;;;;;38.93;31.87;;;8.30;45.40;;;;;;10478876;28;20239;-78
2024/03/01 08:52:30;;;;;;;37.40;31.53;;;8.30;46.10;;;;;;10495845;28;20740;-78
2024/03/01 08:57:34;;;;;;;37.43;30.63;;;8.30;46.20;;;;;;10485555;28;20217;-78
2024/03/01 09:02:46;;;;;;;38.20;30.10;;;8.30;45.40;;;;;;10485031;28;20335;-78
2024/03/01 09:07:50;;;;;;;35.80;29.40;;;8.30;46.40;;;;;;10476621;28;20232;-78
2024/03/01 09:12:53;;;;;;;41.57;33.10;;;8.30;45.50;;;;;;10482816;28;20354;-78
2024/03/01 09:17:58;;;;;;;37.27;30.37;;;8.40;45.50;;;;;;10456529;28;20224;-76
2024/03/01 09:23:08;;;;;;;36.97;29.73;;;8.40;45.50;;;;;;10494677;28;20232;-78
2024/03/01 09:28:14;;;;;;;35.60;29.97;;;8.50;46.20;;;;;;10487914;28;20255;-77
2024/03/01 09:33:19;;;;;;;39.73;31.23;;;8.50;45.70;;;;;;10503417;28;20265;-77
2024/03/01 09:38:23;;;;;;;40.50;31.17;;;8.50;46.00;;;;;;10500218;28;20248;-76
2024/03/01 09:43:35;;;;;;;39.77;32.27;;;8.60;45.70;;;;;;10502758;28;20288;-77
2024/03/01 09:48:49;;;;;;;42.13;32.27;;;8.60;45.70;;;;;;10500370;28;20241;-77
2024/03/01 09:54:05;;;;;;;36.80;29.83;;;8.70;46.90;;;;;;10488457;28;20898;-79
2024/03/01 09:59:16;;;;;;;35.00;28.43;;;8.70;46.60;;;;;;10489789;28;20231;-78
2024/03/01 10:04:35;;;;;;;37.87;30.67;;;8.80;46.60;;;;;;10495423;28;20240;-79
2024/03/01 10:10:04;;;;;;;43.07;33.93;;;8.80;46.80;;;;;;10498005;28;20614;-79
2024/03/01 10:15:17;;;;;;;42.10;32.60;;;8.90;47.10;;;;;;10492984;28;20306;-78
2024/03/01 10:20:26;;;;;;;36.80;29.80;;;8.90;46.80;;;;;;10497216;28;20255;-79
2024/03/01 10:25:41;;;;;;;40.70;33.97;;;9.00;46.70;;;;;;10507664;28;20286;-78
2024/03/01 10:30:52;;;;;;;40.83;32.37;;;9.10;46.80;;;;;;10499274;28;20227;-79
2024/03/01 10:36:06;;;;;;;39.33;33.03;;;9.20;46.30;;;;;;10477496;28;20262;-78
2024/03/01 10:41:15;;;;;;;39.07;31.60;;;9.20;47.10;;;;;;10477174;28;20232;-78
2024/03/01 10:46:37;;;;;;;37.17;31.03;;;9.30;46.80;;;;;;10481627;28;20228;-79
2024/03/01 10:51:52;;;;;;;38.30;30.87;;;9.40;46.80;;;;;;10470832;28;20281;-78
2024/03/01 10:56:58;;;;;;;39.80;30.70;;;9.50;47.00;;;;;;10468508;28;20232;-78
2024/03/01 11:02:11;;;;;;;35.00;29.53;;;9.60;46.50;;;;;;10475353;28;20274;-78
2024/03/01 11:07:26;;;;;;;37.53;31.20;;;9.80;46.60;;;;;;10476521;28;20312;-77
2024/03/01 11:12:35;;;;;;;37.10;30.93;;;9.90;46.80;;;;;;10478606;28;20736;-76
2024/03/01 11:17:42;;;;;;;35.90;30.53;;;10.00;45.90;;;;;;10473441;28;20435;-78
2024/03/01 11:22:52;;;;;;;37.97;31.00;;;10.10;46.00;;;;;;10469141;28;20820;-75
2024/03/01 11:27:59;;;;;;;37.67;30.53;;;10.20;45.70;;;;;;10473283;28;20252;-76
2024/03/01 11:33:05;;;;;;;35.90;30.00;;;10.30;45.50;;;;;;10472756;28;20307;-76
2024/03/01 11:38:23;;;;;;;37.93;30.07;;;10.40;45.30;;;;;;10477136;28;20718;-76
2024/03/01 11:43:38;;;;;;;33.53;29.07;;;10.50;46.30;;;;;;10469452;28;20231;-79
2024/03/01 11:48:55;;;;;;;33.10;28.90;;;10.50;45.30;;;;;;10485311;28;20249;-76
2024/03/01 11:54:21;;;;;;;35.63;28.10;;;10.70;45.90;;;;;;10479733;28;20224;-76
2024/03/01 11:59:46;;;;;;;32.40;27.70;;;10.70;45.70;;;;;;10480517;28;20228;-75
2024/03/01 12:05:05;;;;;;;31.17;25.13;;;10.80;45.50;;;;;;10485927;28;20674;-77
2024/03/01 12:10:25;;;;;;;31.80;27.47;;;10.90;45.20;;;;;;10477064;28;20248;-77
2024/03/01 12:15:34;;;;;;;36.43;30.63;;;11.00;45.30;;;;;;10481324;28;20245;-78
2024/03/01 12:20:44;;;;;;;33.30;28.20;;;11.20;45.00;;;;;;10490993;28;20596;-76
2024/03/01 12:25:50;;;;;;;35.90;29.47;;;11.20;44.90;;;;;;10491783;28;20316;-76
2024/03/01 12:31:03;;;;;;;36.87;30.93;;;11.30;44.70;;;;;;10493061;28;20252;-77
2024/03/01 12:36:18;;;;;;;38.87;34.07;;;11.40;44.80;;;;;;10479353;28;20302;-77
2024/03/01 12:41:40;;;;;;;33.73;28.13;;;11.50;44.60;;;;;;10481909;28;20577;-77
2024/03/01 12:47:25;;;;;;;35.73;29.93;;;11.60;44.60;;;;;;10477202;28;20248;-77
2024/03/01 12:52:48;;;;;;;32.63;27.73;;;11.70;44.30;;;;;;10428567;28;20220;-77
2024/03/01 12:58:00;;;;;;;33.10;27.50;;;11.70;43.90;;;;;;10475722;28;20312;-77
2024/03/01 13:03:20;;;;;;;37.50;28.30;;;11.80;43.90;;;;;;10482330;28;20227;-76
2024/03/01 13:08:27;;;;;;;31.97;27.23;;;11.80;43.90;;;;;;10482262;28;20258;-77
2024/03/01 13:13:34;;;;;;;28.63;22.80;;;11.90;43.80;;;;;;10488119;28;20254;-76
2024/03/01 13:18:47;;;;;;;33.63;27.87;;;12.00;44.70;;;;;;10473084;28;20224;-77
2024/03/01 13:24:02;;;;;;;28.73;24.80;;;12.10;43.80;;;;;;10486182;28;20717;-77
2024/03/01 13:29:12;;;;;;;34.37;25.70;;;12.20;43.80;;;;;;10485397;28;20742;-77
2024/03/01 13:34:20;;;;;;;33.37;26.03;;;12.20;43.30;;;;;;10480490;28;20602;-77
2024/03/01 13:39:29;;;;;;;30.83;25.40;;;12.20;43.10;;;;;;10488316;28;20262;-77
2024/03/01 13:44:38;;;;;;;29.37;24.77;;;12.20;43.10;;;;;;10498078;28;20234;-77
2024/03/01 13:49:46;;;;;;;30.20;25.50;;;12.20;43.70;;;;;;10489810;28;20314;-77
2024/03/01 13:54:51;;;;;;;30.03;25.30;;;12.30;43.40;;;;;;10496900;28;20232;-77
2024/03/01 13:59:56;;;;;;;30.50;25.60;;;12.30;43.10;;;;;;10497921;28;20733;-76
2024/03/01 14:05:00;;;;;;;29.57;24.20;;;12.40;43.20;;;;;;10491843;28;20311;-76
2024/03/01 14:10:06;;;;;;;28.40;25.30;;;12.40;43.50;;;;;;10474369;28;20228;-77
2024/03/01 14:15:12;;;;;;;28.83;24.53;;;12.50;43.50;;;;;;10485794;28;20223;-77
2024/03/01 14:20:17;;;;;;;28.27;24.50;;;12.60;43.20;;;;;;10481197;28;20231;-77
2024/03/01 14:25:21;;;;;;;27.80;23.97;;;12.60;43.00;;;;;;10481341;28;20279;-76
2024/03/01 14:30:27;;;;;;;30.33;25.50;;;12.70;43.10;;;;;;10480670;28;20306;-77
2024/03/01 14:35:30;;;;;;;29.10;24.43;;;12.70;43.00;;;;;;10485840;28;20234;-76
2024/03/01 14:40:33;;;;;;;27.17;23.30;;;12.80;42.90;;;;;;10483738;28;20876;-77
2024/03/01 14:45:39;;;;;;;24.13;20.57;;;12.80;42.70;;;;;;10476607;28;20220;-77
2024/03/01 14:50:45;;;;;;;25.90;22.27;;;12.80;42.70;;;;;;10484547;28;20279;-77
2024/03/01 14:55:49;;;;;;;24.57;21.43;;;12.90;42.50;;;;;;10489628;28;20263;-77
2024/03/01 15:00:54;;;;;;;29.10;24.07;;;12.90;42.50;;;;;;10474323;28;20256;-78
2024/03/01 15:05:58;;;;;;;26.83;22.33;;;13.00;42.60;;;;;;10479063;28;20690;-77
2024/03/01 15:11:07;;;;;;;29.70;23.93;;;13.00;42.60;;;;;;10481956;28;20249;-78
2024/03/01 15:16:20;;;;;;;26.63;23.03;;;13.00;42.60;;;;;;10490800;28;20239;-78
2024/03/01 15:21:24;;;;;;;24.47;20.80;;;13.00;42.60;;;;;;10489513;28;20358;-77
2024/03/01 15:26:27;;;;;;;27.17;22.67;;;13.10;42.70;;;;;;10485349;28;20310;-77
2024/03/01 15:31:32;;;;;;;24.60;22.00;;;13.10;42.70;;;;;;10481040;28;20228;-77
2024/03/01 15:36:35;;;;;;;27.20;23.97;;;13.10;42.70;;;;;;10490009;28;20645;-77
2024/03/01 15:41:39;;;;;;;25.93;22.93;;;13.20;42.70;;;;;;10485262;28;20232;-77
2024/03/01 15:46:43;;;;;;;27.63;23.73;;;13.20;42.70;;;;;;10488667;28;20236;-77
2024/03/01 15:51:50;;;;;;;27.43;23.00;;;13.20;42.40;;;;;;10484462;28;20254;-77
2024/03/01 15:56:53;;;;;;;29.47;24.40;;;13.20;43.30;;;;;;10483005;28;20242;-77
2024/03/01 16:01:57;;;;;;;31.63;26.07;;;13.20;42.60;;;;;;10478923;28;20225;-77
2024/03/01 16:07:05;;;;;;;30.03;24.90;;;13.20;42.30;;;;;;10482453;28;20611;-77
2024/03/01 16:12:10;;;;;;;33.57;27.50;;;13.20;42.30;;;;;;10474019;28;20282;-77
2024/03/01 16:17:15;;;;;;;28.83;25.00;;;13.20;42.70;;;;;;10494407;28;20612;-77
2024/03/01 16:22:19;;;;;;;28.57;24.30;;;13.10;42.50;;;;;;10483694;28;20279;-77
2024/03/01 16:27:22;;;;;;;25.73;22.90;;;13.10;42.70;;;;;;10479558;28;20649;-78
2024/03/01 16:32:31;;;;;;;22.77;19.87;;;13.10;42.70;;;;;;10485638;28;20228;-77
2024/03/01 16:37:35;;;;;;;20.03;17.07;;;13.10;42.40;;;;;;10479017;28;20598;-77
2024/03/01 16:42:41;;;;;;;25.27;21.90;;;13.20;43.90;;;;;;10487593;28;20653;-77
2024/03/01 16:47:47;;;;;;;25.63;22.50;;;13.30;44.20;;;;;;10485092;28;20316;-77
2024/03/01 16:52:51;;;;;;;24.50;21.53;;;13.40;43.30;;;;;;10473100;28;20295;-77
2024/03/01 16:57:54;;;;;;;26.27;21.77;;;13.50;43.00;;;;;;10480568;28;20232;-76
2024/03/01 17:03:02;;;;;;;22.50;17.60;;;13.50;43.00;;;;;;10480278;28;20236;-77
2024/03/01 17:08:10;;;;;;;24.60;19.90;;;13.50;44.60;;;;;;10491324;28;20244;-75
2024/03/01 17:13:24;;;;;;;24.00;20.03;;;13.60;43.20;;;;;;10495469;28;20604;-76
2024/03/01 17:18:30;;;;;;;23.23;19.77;;;13.60;43.10;;;;;;10484210;28;20232;-76
2024/03/01 17:23:35;;;;;;;25.33;20.83;;;13.60;42.70;;;;;;10454889;28;20237;-76
2024/03/01 17:28:38;;;;;;;20.87;18.10;;;13.60;42.40;;;;;;10454064;28;20791;-76
2024/03/01 17:33:43;;;;;;;21.47;18.37;;;13.60;42.50;;;;;;10453059;28;20229;-76
2024/03/01 17:38:46;;;;;;;19.60;17.23;;;13.50;42.30;;;;;;10452629;28;20599;-74
2024/03/01 17:43:49;;;;;;;24.30;20.70;;;13.40;42.30;;;;;;10453099;28;20252;-76
2024/03/01 17:48:54;;;;;;;21.73;19.43;;;13.40;42.30;;;;;;10491366;28;20239;-75
2024/03/01 17:53:59;;;;;;;17.10;15.30;;;13.30;42.10;;;;;;10489648;28;20240;-75
2024/03/01 17:59:02;;;;;;;18.43;16.43;;;13.30;42.30;;;;;;10488930;28;20324;-75
2024/03/01 18:04:07;;;;;;;22.80;19.67;;;13.30;42.30;;;;;;10489386;28;20258;-75
2024/03/01 18:09:10;;;;;;;20.27;16.93;;;13.20;42.00;;;;;;10484013;28;20967;-75
2024/03/01 18:14:13;;;;;;;29.93;26.80;;;13.20;42.10;;;;;;10500938;28;20238;-76
2024/03/01 18:19:18;;;;;;;29.93;25.93;;;13.10;42.10;;;;;;10486419;28;20873;-77
2024/03/01 18:24:22;;;;;;;28.70;24.93;;;13.00;42.00;;;;;;10498818;28;20255;-78
2024/03/01 18:29:29;;;;;;;28.93;25.57;;;13.00;42.10;;;;;;10495603;28;20769;-78
2024/03/01 18:34:34;;;;;;;30.30;27.07;;;13.00;42.20;;;;;;10492624;28;20317;-77
2024/03/01 18:39:37;;;;;;;28.50;24.00;;;12.90;42.10;;;;;;10486907;28;20256;-77
2024/03/01 18:44:40;;;;;;;27.63;24.67;;;12.80;42.40;;;;;;10490577;28;20311;-78
2024/03/01 18:49:44;;;;;;;25.57;22.73;;;12.80;42.40;;;;;;10496659;28;20224;-78
2024/03/01 18:54:48;;;;;;;26.50;22.07;;;12.80;42.40;;;;;;10476897;28;20666;-79
2024/03/01 18:59:51;;;;;;;26.63;23.53;;;12.80;42.40;;;;;;10489673;28;20244;-78
2024/03/01 19:04:58;;;;;;;26.40;23.10;;;12.70;42.40;;;;;;10484456;28;20598;-78
2024/03/01 19:10:03;;;;;;;25.80;22.77;;;12.70;42.30;;;;;;10498697;28;20301;-75
2024/03/01 19:15:08;;;;;;;23.13;20.40;;;12.70;42.30;;;;;;10496250;28;20307;-74
2024/03/01 19:20:13;;;;;;;26.73;22.90;;;12.60;42.20;;;;;;10493856;28;20228;-74
2024/03/01 19:25:17;;;;;;;26.00;22.60;;;12.60;42.20;;;;;;10493938;28;20793;-75
2024/03/01 19:30:20;;;;;;;30.57;25.00;;;12.60;42.20;;;;;;10484890;28;20230;-76
2024/03/01 19:35:26;;;;;;;32.53;26.90;;;12.50;42.10;;;;;;10477827;28;20232;-76
2024/03/01 19:40:29;;;;;;;36.50;28.60;;;12.50;42.10;;;;;;10472609;28;20290;-76
2024/03/01 19:45:32;;;;;;;34.33;27.27;;;12.40;42.00;;;;;;10452163;28;20278;-74
2024/03/01 19:50:37;;;;;;;33.97;27.03;;;12.40;42.00;;;;;;10451635;28;20235;-74
2024/03/01 19:55:40;;;;;;;34.03;27.73;;;12.30;42.40;;;;;;10451284;28;20228;-74
2024/03/01 20:00:44;;;;;;;30.53;22.43;;;12.30;42.30;;;;;;10450682;28;20727;-74
2024/03/01 20:05:48;;;;;;;32.57;24.80;;;12.30;42.50;;;;;;10449610;28;20231;-74
2024/03/01 20:10:51;;;;;;;27.83;22.30;;;12.30;42.70;;;;;;10453341;28;20260;-75
2024/03/01 20:15:55;;;;;;;26.80;21.00;;;12.30;42.50;;;;;;10453403;28;20231;-75
2024/03/01 20:21:00;;;;;;;27.97;22.27;;;12.30;43.50;;;;;;10452738;28;20610;-76
2024/03/01 20:26:04;;;;;;;32.47;26.80;;;12.20;42.90;;;;;;10452244;28;20235;-75
2024/03/01 20:31:07;;;;;;;32.30;27.07;;;12.10;42.70;;;;;;10451812;28;20651;-75
2024/03/01 20:36:12;;;;;;;30.53;24.87;;;12.10;43.70;;;;;;10450389;28;20777;-76
2024/03/01 20:41:15;;;;;;;31.87;25.43;;;11.90;43.30;;;;;;10450112;28;20264;-75
2024/03/01 20:46:20;;;;;;;28.40;24.17;;;11.80;43.20;;;;;;10450212;28;20236;-75
2024/03/01 20:51:25;;;;;;;29.40;24.83;;;11.70;43.60;;;;;;10449184;28;20229;-76
2024/03/01 20:56:28;;;;;;;27.50;23.57;;;11.70;43.90;;;;;;10449338;28;20228;-76
2024/03/01 21:01:32;;;;;;;27.63;23.17;;;11.60;43.70;;;;;;10449942;28;20233;-76
2024/03/01 21:06:36;;;;;;;26.90;23.83;;;11.60;43.70;;;;;;10451430;28;20228;-76
2024/03/01 21:11:40;;;;;;;24.97;22.27;;;11.50;44.20;;;;;;10450648;28;20286;-76
2024/03/01 21:16:43;;;;;;;25.77;21.70;;;11.40;44.10;;;;;;10450195;28;20217;-76
2024/03/01 21:21:47;;;;;;;24.33;21.50;;;11.40;44.30;;;;;;10450158;28;20233;-75
2024/03/01 21:26:54;;;;;;;24.50;21.67;;;11.40;44.60;;;;;;10449937;28;20224;-76
2024/03/01 21:31:58;;;;;;;22.50;18.70;;;11.40;44.50;;;;;;10449919;28;20239;-76
2024/03/01 21:37:03;;;;;;;19.83;16.33;;;11.40;44.60;;;;;;10449918;28;20232;-75
2024/03/01 21:42:07;;;;;;;18.80;15.33;;;11.40;44.80;;;;;;10449359;28;20237;-76
2024/03/01 21:47:17;;;;;;;18.77;15.53;;;11.40;44.60;;;;;;10450103;28;20268;-76
2024/03/01 21:52:21;;;;;;;17.80;15.03;;;11.40;45.20;;;;;;10450438;28;20542;-76
2024/03/01 21:57:24;;;;;;;17.87;14.47;;;11.40;44.90;;;;;;10451249;28;20312;-76
2024/03/01 22:02:27;;;;;;;17.73;14.47;;;11.40;44.70;;;;;;10450515;28;20233;-76
2024/03/01 22:07:32;;;;;;;18.33;16.17;;;11.40;44.60;;;;;;10449947;28;20232;-76
2024/03/01 22:12:36;;;;;;;19.63;16.80;;;11.40;44.90;;;;;;10449428;28;20229;-76
2024/03/01 22:17:39;;;;;;;16.77;14.97;;;11.40;44.70;;;;;;10450247;28;20228;-76
2024/03/01 22:22:43;;;;;;;16.83;15.03;;;11.40;44.80;;;;;;10448711;28;20232;-76
2024/03/01 22:27:46;;;;;;;17.43;14.53;;;11.40;45.00;;;;;;10449830;28;20244;-76
2024/03/01 22:32:50;;;;;;;14.97;12.83;;;11.50;44.80;;;;;;10450196;28;20271;-76
2024/03/01 22:37:54;;;;;;;13.77;12.37;;;11.60;44.90;;;;;;10451195;28;20221;-76
2024/03/01 22:42:58;;;;;;;14.27;12.63;;;11.60;44.90;;;;;;10451990;28;20229;-76
2024/03/01 22:48:01;;;;;;;14.33;12.83;;;11.60;44.60;;;;;;10450468;28;20244;-76
2024/03/01 22:53:06;;;;;;;16.60;14.37;;;11.70;44.50;;;;;;10451083;28;20240;-76
2024/03/01 22:58:10;;;;;;;18.90;14.70;;;11.70;44.50;;;;;;10451049;28;20231;-76
2024/03/01 23:03:35;;;;;;;16.93;14.50;;;11.80;44.60;;;;;;10450934;28;20638;-77
2024/03/01 23:08:51;;;;;;;17.83;14.57;;;11.70;45.00;;;;;;10450538;28;20649;-76
2024/03/01 23:13:54;;;;;;;14.77;13.27;;;11.80;44.70;;;;;;10450645;28;20239;-76
2024/03/01 23:18:58;;;;;;;15.73;13.97;;;11.80;44.30;;;;;;10450765;28;20233;-76
2024/03/01 23:24:03;;;;;;;14.80;12.50;;;11.80;44.20;;;;;;10451124;28;20289;-76
2024/03/01 23:29:07;;;;;;;17.80;14.77;;;11.80;44.40;;;;;;10451081;28;20635;-76
2024/03/01 23:34:10;;;;;;;14.30;12.27;;;11.80;44.10;;;;;;10453536;28;20233;-76
2024/03/01 23:39:14;;;;;;;15.37;13.17;;;11.90;44.30;;;;;;10457331;28;20243;-76
2024/03/01 23:44:18;;;;;;;13.17;11.87;;;11.90;44.30;;;;;;10456921;28;20241;-76
2024/03/01 23:49:21;;;;;;;13.97;12.57;;;11.90;44.20;;;;;;10457229;28;20751;-76
2024/03/01 23:54:25;;;;;;;13.03;11.80;;;11.90;44.20;;;;;;10458410;28;20308;-76
2024/03/01 23:59:29;;;;;;;15.77;14.17;;;11.90;44.40;;;;;;10458497;28;20776;-76
